Time;durP1;ratioP1;P1;durP2;ratioP2;P2;SDS_P1;SDS_P2;PMS_P1;PMS_P2;Temp;Humidity;BMP_temperature;BMP_pressure;BME280_temperature;BME280_humidity;BME280_pressure;Samples;Min_cycle;Max_cycle;Signal;HPM_P1;HPM_P2
2022/02/07 00:02:02;;;;;;;1.45;1.02;;;0.80;99.90;;;;;;5051683;28;20388;-69
2022/02/07 00:04:36;;;;;;;2.28;1.30;;;0.80;99.90;;;;;;5051770;28;20108;-70
2022/02/07 00:07:05;;;;;;;2.17;1.40;;;0.80;99.90;;;;;;5051847;28;20111;-69
2022/02/07 00:09:33;;;;;;;1.17;0.95;;;0.80;99.90;;;;;;5051879;28;20103;-69
2022/02/07 00:11:58;;;;;;;1.80;1.27;;;0.70;99.90;;;;;;5051494;28;20028;-69
2022/02/07 00:14:24;;;;;;;1.02;0.85;;;0.70;99.90;;;;;;5052010;28;20025;-69
2022/02/07 00:16:50;;;;;;;1.70;1.10;;;0.70;99.90;;;;;;5051474;28;20541;-69
2022/02/07 00:19:23;;;;;;;4.25;1.40;;;0.70;99.90;;;;;;5050378;28;20059;-69
2022/02/07 00:21:50;;;;;;;1.50;1.10;;;0.70;99.90;;;;;;5051883;28;20029;-69
2022/02/07 00:24:15;;;;;;;3.90;1.60;;;0.70;99.90;;;;;;5051780;28;20067;-69
2022/02/07 00:26:41;;;;;;;2.00;1.13;;;0.80;99.90;;;;;;5051497;28;20425;-69
2022/02/07 00:29:07;;;;;;;1.35;1.08;;;0.80;99.90;;;;;;5050300;28;20029;-69
2022/02/07 00:31:33;;;;;;;2.08;0.80;;;0.80;99.90;;;;;;5051670;28;20036;-69
2022/02/07 00:33:59;;;;;;;1.63;1.10;;;0.80;99.90;;;;;;5051516;28;20034;-69
2022/02/07 00:36:25;;;;;;;1.10;1.00;;;0.80;99.90;;;;;;5051681;28;20025;-68
2022/02/07 00:38:58;;;;;;;2.45;1.20;;;0.70;99.90;;;;;;5051316;28;20048;-69
2022/02/07 00:41:32;;;;;;;2.85;1.30;;;0.70;99.90;;;;;;5051343;28;20497;-69
2022/02/07 00:44:09;;;;;;;5.00;1.35;;;0.80;99.90;;;;;;5051552;28;20025;-69
2022/02/07 00:46:39;;;;;;;2.95;1.20;;;0.80;99.90;;;;;;5051468;28;20032;-69
2022/02/07 00:49:05;;;;;;;2.72;1.25;;;0.90;99.90;;;;;;5051297;28;20032;-69
2022/02/07 00:51:31;;;;;;;2.40;1.02;;;0.80;99.90;;;;;;5053348;28;20048;-69
2022/02/07 00:53:58;;;;;;;3.95;0.98;;;0.80;99.90;;;;;;5055462;28;20029;-69
2022/02/07 00:56:23;;;;;;;2.33;1.10;;;0.90;99.90;;;;;;5055085;28;20025;-69
2022/02/07 00:58:49;;;;;;;2.13;1.08;;;0.90;99.90;;;;;;5055298;28;20028;-69
2022/02/07 01:01:15;;;;;;;3.05;1.13;;;0.80;99.90;;;;;;5055070;28;20052;-69
2022/02/07 01:03:40;;;;;;;2.53;1.20;;;0.90;99.90;;;;;;5054839;28;20032;-69
2022/02/07 01:06:06;;;;;;;1.55;1.08;;;0.90;99.90;;;;;;5054768;28;20032;-69
2022/02/07 01:08:43;;;;;;;4.13;1.52;;;1.00;99.90;;;;;;5054981;28;20108;-68
2022/02/07 01:17:14;;;;;;;4.20;1.20;;;1.00;99.90;;;;;;5031544;28;20036;-68
2022/02/07 01:19:54;;;;;;;1.35;1.05;;;1.00;99.90;;;;;;5054560;28;20024;-68
2022/02/07 01:47:08;;;;;;;1.23;1.05;;;1.00;99.90;;;;;;5054335;28;20055;-68
2022/02/07 01:54:40;;;;;;;1.67;1.10;;;0.80;99.90;;;;;;5054196;28;20495;-69
2022/02/07 01:57:09;;;;;;;1.20;0.98;;;0.80;99.90;;;;;;5053729;28;20036;-68
2022/02/07 01:59:35;;;;;;;1.90;1.10;;;0.70;99.90;;;;;;5053939;28;20107;-68
2022/02/07 02:02:01;;;;;;;1.17;0.90;;;0.70;99.90;;;;;;5054138;28;20020;-68
2022/02/07 02:04:27;;;;;;;3.10;0.93;;;0.70;99.90;;;;;;5053183;28;20476;-69
2022/02/07 02:06:53;;;;;;;1.13;0.98;;;0.70;99.90;;;;;;5053737;28;20059;-68
2022/02/07 02:09:19;;;;;;;1.65;1.00;;;0.70;99.90;;;;;;5053552;28;20484;-68
2022/02/07 02:11:45;;;;;;;1.05;0.80;;;0.70;99.90;;;;;;5053724;28;20025;-68
2022/02/07 02:19:58;;;;;;;1.02;1.00;;;0.80;99.90;;;;;;5053459;28;20016;-68
2022/02/07 02:56:08;;;;;;;2.55;1.65;;;0.80;99.90;;;;;;5052444;28;20048;-68
2022/02/07 02:58:33;;;;;;;2.38;1.77;;;0.80;99.90;;;;;;5052666;28;20025;-68
2022/02/07 03:00:59;;;;;;;3.08;1.88;;;0.70;99.90;;;;;;5052630;28;20029;-68
2022/02/07 03:03:25;;;;;;;2.92;2.03;;;0.60;99.90;;;;;;5052561;28;20021;-68
2022/02/07 03:36:55;;;;;;;4.15;2.30;;;0.30;99.90;;;;;;5967270;22;20509;-69
2022/02/07 03:39:21;;;;;;;2.95;2.15;;;0.30;99.90;;;;;;5090126;28;20035;-67
2022/02/07 03:41:46;;;;;;;3.33;2.10;;;0.30;99.90;;;;;;5092329;28;20756;-69
2022/02/07 03:44:12;;;;;;;2.25;1.90;;;0.30;99.90;;;;;;5092102;28;20020;-68
2022/02/07 03:46:38;;;;;;;3.22;2.00;;;0.30;99.90;;;;;;5092118;28;20028;-69
2022/02/07 03:49:04;;;;;;;3.25;2.08;;;0.20;99.90;;;;;;5072679;28;20043;-68
2022/02/07 03:51:29;;;;;;;4.05;2.10;;;0.20;99.90;;;;;;5071997;28;20052;-68
2022/02/07 03:53:55;;;;;;;2.60;1.95;;;0.20;99.90;;;;;;5072123;28;20020;-68
2022/02/07 03:56:21;;;;;;;2.05;1.58;;;0.20;99.90;;;;;;5071850;28;20027;-68
2022/02/07 03:58:47;;;;;;;3.22;2.05;;;0.20;99.90;;;;;;5072142;28;20078;-68
2022/02/07 04:01:12;;;;;;;3.30;2.00;;;0.20;99.90;;;;;;5071734;28;20024;-69
2022/02/07 04:03:38;;;;;;;4.60;2.22;;;0.10;99.90;;;;;;5071695;28;20024;-69
2022/02/07 04:06:13;;;;;;;4.45;2.03;;;0.10;99.90;;;;;;5071744;28;20033;-67
2022/02/07 04:08:43;;;;;;;4.10;1.80;;;0.10;99.90;;;;;;5071726;28;20033;-68
2022/02/07 04:13:39;;;;;;;2.17;1.80;;;0.00;99.90;;;;;;5072021;28;20021;-69
2022/02/07 04:16:06;;;;;;;3.17;1.83;;;0.00;99.90;;;;;;5071563;28;20046;-70
2022/02/07 04:18:46;;;;;;;2.15;1.67;;;-0.10;99.90;;;;;;5071746;28;20481;-70
2022/02/07 04:21:12;;;;;;;3.40;1.95;;;-0.20;99.90;;;;;;5071916;28;20032;-69
2022/02/07 04:23:38;;;;;;;4.00;2.13;;;-0.20;99.90;;;;;;5071857;28;20039;-69
2022/02/07 04:26:03;;;;;;;3.03;1.63;;;-0.10;99.90;;;;;;5072543;28;20030;-70
2022/02/07 04:28:29;;;;;;;2.65;1.67;;;-0.20;99.90;;;;;;5075777;28;20028;-69
2022/02/07 04:30:55;;;;;;;3.45;2.08;;;-0.30;99.90;;;;;;5075909;28;20387;-69
2022/02/07 04:33:21;;;;;;;2.60;1.67;;;-0.30;99.90;;;;;;5075641;28;20017;-69
2022/02/07 04:35:46;;;;;;;2.78;1.90;;;-0.30;99.90;;;;;;5075455;28;20090;-69
2022/02/07 04:38:12;;;;;;;2.15;1.73;;;-0.30;99.90;;;;;;5074972;28;20048;-69
2022/02/07 04:40:38;;;;;;;2.35;2.05;;;-0.20;99.90;;;;;;5075691;28;20021;-69
2022/02/07 04:43:05;;;;;;;3.67;1.80;;;-0.30;99.90;;;;;;5075163;28;20376;-68
2022/02/07 04:45:45;;;;;;;2.05;1.80;;;-0.40;99.90;;;;;;5075635;28;20071;-68
2022/02/07 04:51:26;;;;;;;2.50;1.75;;;-0.50;99.90;;;;;;5075604;28;20068;-68
2022/02/07 05:03:52;;;;;;;4.70;1.85;;;-0.50;99.90;;;;;;5075369;28;20027;-68
2022/02/07 05:14:32;;;;;;;3.22;2.17;;;-0.60;99.90;;;;;;5074966;28;20509;-69
2022/02/07 05:16:59;;;;;;;2.75;1.77;;;-0.60;99.90;;;;;;5074993;28;20029;-69
2022/02/07 05:19:24;;;;;;;5.32;2.28;;;-0.70;99.90;;;;;;5074689;28;20086;-67
2022/02/07 05:21:50;;;;;;;3.17;1.83;;;-0.70;99.90;;;;;;5074855;28;20024;-68
2022/02/07 05:24:16;;;;;;;3.45;2.25;;;-0.70;99.90;;;;;;5074346;28;20025;-68
2022/02/07 05:26:42;;;;;;;3.17;2.10;;;-0.70;99.90;;;;;;5074785;28;20016;-68
2022/02/07 05:29:07;;;;;;;2.67;2.17;;;-0.70;99.90;;;;;;5074149;28;20556;-68
2022/02/07 05:31:34;;;;;;;2.28;1.90;;;-0.70;99.90;;;;;;5074328;28;20083;-70
2022/02/07 05:34:00;;;;;;;3.30;2.00;;;-0.80;99.90;;;;;;5074554;28;20028;-69
2022/02/07 05:36:26;;;;;;;4.70;2.75;;;-0.80;99.90;;;;;;5074420;28;20024;-75
2022/02/07 05:38:56;;;;;;;2.20;1.90;;;-0.80;99.90;;;;;;5073124;28;20072;-72
2022/02/07 05:41:22;;;;;;;3.53;1.83;;;-0.90;99.90;;;;;;5074597;28;20028;-73
2022/02/07 05:43:50;;;;;;;4.20;2.35;;;-0.70;99.90;;;;;;5074418;28;20036;-73
2022/02/07 05:46:17;;;;;;;2.45;1.77;;;-0.40;99.90;;;;;;5075128;28;20013;-72
2022/02/07 05:48:43;;;;;;;2.95;1.90;;;-0.50;99.90;;;;;;5093785;28;20088;-73
2022/02/07 05:51:09;;;;;;;2.60;1.83;;;-0.60;99.90;;;;;;5093478;28;20520;-71
2022/02/07 05:53:35;;;;;;;3.55;2.30;;;-0.70;99.90;;;;;;5093738;28;20024;-70
2022/02/07 05:56:01;;;;;;;4.07;2.40;;;-0.80;99.90;;;;;;5093566;28;20051;-71
2022/02/07 05:58:28;;;;;;;2.90;2.00;;;-0.80;99.90;;;;;;5093112;28;20162;-71
2022/02/07 06:00:54;;;;;;;2.95;2.10;;;-0.90;99.90;;;;;;5093487;28;20043;-73
2022/02/07 06:03:20;;;;;;;2.47;1.77;;;-0.90;99.90;;;;;;5093114;28;20104;-71
2022/02/07 06:05:46;;;;;;;3.28;1.98;;;-0.90;99.90;;;;;;5093186;28;20039;-71
2022/02/07 06:08:12;;;;;;;2.10;1.77;;;-1.00;99.90;;;;;;5092841;28;20382;-71
2022/02/07 06:10:38;;;;;;;3.65;1.98;;;-1.00;99.90;;;;;;5094080;28;20027;-72
2022/02/07 06:13:05;;;;;;;2.28;1.90;;;-1.00;99.90;;;;;;5093002;28;20024;-71
2022/02/07 06:15:31;;;;;;;2.78;1.92;;;-1.00;99.90;;;;;;5086945;28;20602;-70
2022/02/07 06:17:59;;;;;;;2.28;1.73;;;-1.00;99.90;;;;;;5084287;28;20099;-71
2022/02/07 06:20:26;;;;;;;2.50;1.90;;;-1.00;99.90;;;;;;5092979;28;20493;-72
2022/02/07 06:22:51;;;;;;;2.67;1.88;;;-1.00;99.90;;;;;;5092817;28;20020;-71
2022/02/07 06:25:17;;;;;;;3.53;1.98;;;-1.10;99.90;;;;;;5093651;28;20441;-75
2022/02/07 06:27:43;;;;;;;3.72;2.28;;;-1.10;99.90;;;;;;5093507;28;20098;-72
2022/02/07 06:30:12;;;;;;;3.38;1.90;;;-1.00;99.90;;;;;;5093470;28;20032;-72
2022/02/07 06:32:39;;;;;;;2.20;1.88;;;-0.80;99.90;;;;;;5093609;28;20028;-72
2022/02/07 06:35:05;;;;;;;3.47;2.20;;;-0.90;99.90;;;;;;5093423;28;20069;-72
2022/02/07 06:37:31;;;;;;;3.08;1.85;;;-1.00;99.90;;;;;;5092883;28;20068;-71
2022/02/07 06:39:57;;;;;;;1.70;1.60;;;-1.00;99.90;;;;;;5093366;28;20063;-72
2022/02/07 06:42:22;;;;;;;2.20;1.85;;;-1.00;99.90;;;;;;5093557;28;20024;-72
2022/02/07 06:44:48;;;;;;;2.35;1.90;;;-1.00;99.90;;;;;;5093229;28;20103;-72
2022/02/07 06:47:14;;;;;;;3.83;2.47;;;-1.00;99.90;;;;;;5093097;28;20028;-72
2022/02/07 06:49:40;;;;;;;2.75;2.05;;;-1.10;99.90;;;;;;5091679;28;20036;-72
2022/02/07 06:52:06;;;;;;;2.13;1.67;;;-1.10;99.90;;;;;;5093396;28;20048;-72
2022/02/07 06:54:32;;;;;;;3.33;2.05;;;-1.20;99.90;;;;;;5092971;28;20028;-73
2022/02/07 06:56:57;;;;;;;2.65;2.05;;;-1.20;99.90;;;;;;5092947;28;20031;-71
2022/02/07 06:59:24;;;;;;;2.15;1.65;;;-1.20;99.90;;;;;;5093061;28;20386;-70
2022/02/07 07:01:50;;;;;;;2.55;1.88;;;-1.20;99.90;;;;;;5092946;28;20089;-72
2022/02/07 07:04:16;;;;;;;2.72;1.80;;;-1.20;99.90;;;;;;5092754;28;20530;-72
2022/02/07 07:06:42;;;;;;;1.55;1.40;;;-1.30;99.90;;;;;;5092863;28;20020;-73
2022/02/07 07:09:12;;;;;;;2.50;1.90;;;-0.70;99.90;;;;;;5092653;28;20069;-71
2022/02/07 07:11:38;;;;;;;3.80;2.20;;;0.00;99.90;;;;;;5092741;28;20081;-68
2022/02/07 07:14:16;;;;;;;2.45;1.77;;;-0.20;99.90;;;;;;5092930;28;20024;-68
2022/02/07 07:16:52;;;;;;;1.75;1.52;;;-0.50;99.90;;;;;;5092787;28;20020;-68
2022/02/07 07:19:19;;;;;;;2.97;2.00;;;-0.70;99.90;;;;;;5092740;28;20028;-68
2022/02/07 07:21:45;;;;;;;2.22;1.67;;;-0.80;99.90;;;;;;5092720;28;20617;-68
2022/02/07 07:24:11;;;;;;;2.72;2.03;;;-0.60;99.90;;;;;;5092454;28;20031;-69
2022/02/07 07:26:38;;;;;;;2.88;2.00;;;-0.70;99.90;;;;;;5092790;28;20383;-70
2022/02/07 07:29:10;;;;;;;2.58;2.15;;;-0.80;99.90;;;;;;5091400;28;20399;-69
2022/02/07 07:31:42;;;;;;;2.97;1.98;;;-0.90;99.90;;;;;;5089928;28;20081;-71
2022/02/07 07:34:08;;;;;;;2.70;2.00;;;-1.00;99.90;;;;;;5089053;28;20104;-70
2022/02/07 07:36:34;;;;;;;3.25;1.80;;;-1.10;99.90;;;;;;5088837;28;20110;-70
2022/02/07 07:38:59;;;;;;;2.75;1.95;;;-1.30;99.90;;;;;;5091653;28;20502;-70
2022/02/07 07:41:27;;;;;;;4.10;1.63;;;-1.30;99.90;;;;;;5086411;28;20028;-68
2022/02/07 07:43:53;;;;;;;5.07;1.98;;;-1.40;99.90;;;;;;5092214;28;20097;-69
2022/02/07 07:46:23;;;;;;;2.58;1.88;;;-1.40;99.90;;;;;;5092000;28;20597;-69
2022/02/07 07:48:57;;;;;;;2.83;2.15;;;-1.40;99.90;;;;;;5092239;28;20505;-70
2022/02/07 07:51:48;;;;;;;2.08;1.85;;;-1.50;99.90;;;;;;5092160;28;20024;-69
2022/02/07 08:02:14;;;;;;;2.95;2.08;;;-1.70;99.90;;;;;;5084372;28;20056;-71
2022/02/07 08:04:42;;;;;;;2.67;2.00;;;-1.70;99.90;;;;;;5071700;28;20032;-68
2022/02/07 08:12:13;;;;;;;3.47;2.42;;;-1.70;99.90;;;;;;5085842;28;20017;-73
2022/02/07 08:14:39;;;;;;;3.78;2.50;;;-1.70;99.90;;;;;;5071909;28;20032;-71
2022/02/07 08:17:07;;;;;;;2.85;1.88;;;-1.70;99.90;;;;;;5075871;28;20525;-68
2022/02/07 08:19:33;;;;;;;4.25;2.05;;;-1.70;99.90;;;;;;5091543;28;20043;-68
2022/02/07 08:22:00;;;;;;;2.25;1.50;;;-1.70;99.90;;;;;;5092084;28;20099;-69
2022/02/07 08:24:26;;;;;;;2.10;1.70;;;-1.60;99.90;;;;;;5091393;28;20487;-65
2022/02/07 08:26:54;;;;;;;2.30;1.70;;;-1.60;99.90;;;;;;5092015;28;20020;-65
2022/02/07 08:29:20;;;;;;;1.92;1.63;;;-1.70;99.90;;;;;;5091645;28;20032;-65
2022/02/07 08:31:46;;;;;;;2.50;1.58;;;-1.70;99.90;;;;;;5091222;28;20027;-66
2022/02/07 08:34:12;;;;;;;2.05;1.58;;;-1.70;99.90;;;;;;5090845;28;20024;-66
2022/02/07 08:36:38;;;;;;;2.92;1.67;;;-1.70;99.90;;;;;;5090860;28;20031;-66
2022/02/07 08:39:04;;;;;;;3.00;1.67;;;-0.50;99.90;;;;;;5091621;28;20020;-66
2022/02/07 08:41:31;;;;;;;2.15;1.50;;;1.90;99.90;;;;;;5091719;28;20020;-66
2022/02/07 08:43:57;;;;;;;3.00;1.80;;;3.20;99.90;;;;;;5091886;28;20028;-70
2022/02/07 08:46:23;;;;;;;2.05;1.38;;;2.90;99.90;;;;;;5091519;28;20028;-68
2022/02/07 08:48:49;;;;;;;1.98;1.40;;;2.00;99.90;;;;;;5091758;28;20036;-69
2022/02/07 08:51:16;;;;;;;1.83;1.50;;;1.20;99.90;;;;;;5091819;28;20032;-69
2022/02/07 08:53:45;;;;;;;3.05;1.90;;;0.60;99.90;;;;;;5091625;28;20027;-69
2022/02/07 08:56:11;;;;;;;4.50;2.50;;;0.20;99.90;;;;;;5090380;28;20356;-69
2022/02/07 08:58:42;;;;;;;3.60;2.45;;;-0.10;99.90;;;;;;5091904;28;20068;-69
2022/02/07 09:06:29;;;;;;;3.70;2.28;;;-0.50;99.90;;;;;;5091423;28;20028;-70
2022/02/07 09:11:56;;;;;;;3.00;1.83;;;-0.80;99.90;;;;;;5048761;28;20036;-69
2022/02/07 09:14:23;;;;;;;2.10;1.67;;;-0.90;99.90;;;;;;5085545;28;20036;-70
2022/02/07 09:16:51;;;;;;;1.88;1.33;;;-1.10;99.90;;;;;;5095145;28;20113;-69
2022/02/07 09:19:19;;;;;;;1.35;1.23;;;-1.20;99.90;;;;;;5094863;28;20028;-70
2022/02/07 09:21:46;;;;;;;1.42;1.33;;;-1.30;99.90;;;;;;5084605;28;20016;-69
2022/02/07 09:24:13;;;;;;;1.60;1.40;;;-1.30;99.90;;;;;;5073339;28;20037;-69
2022/02/07 09:26:39;;;;;;;2.38;1.50;;;-1.30;99.90;;;;;;5074572;28;20017;-70
2022/02/07 09:29:04;;;;;;;1.67;1.40;;;-1.30;99.90;;;;;;5074378;28;20043;-70
2022/02/07 09:31:30;;;;;;;1.65;1.55;;;-1.30;99.90;;;;;;5074352;28;20612;-70
2022/02/07 09:33:56;;;;;;;1.40;1.30;;;-1.20;99.90;;;;;;5074706;28;20039;-70
2022/02/07 09:36:23;;;;;;;1.95;1.55;;;-1.20;99.90;;;;;;5074304;28;20364;-70
2022/02/07 09:38:50;;;;;;;1.70;1.50;;;-1.10;99.90;;;;;;5073997;28;20052;-70
2022/02/07 09:41:17;;;;;;;3.65;1.42;;;-1.10;99.90;;;;;;5074280;28;20031;-70
2022/02/07 09:43:47;;;;;;;3.00;1.67;;;-0.90;99.90;;;;;;5074144;28;20105;-68
2022/02/07 09:46:56;;;;;;;2.08;1.75;;;-0.70;99.90;;;;;;5074072;28;20032;-70
2022/02/07 09:49:04;;;;;;;1.52;1.42;;;-0.70;99.90;;;;;;5063108;28;20056;-70
2022/02/07 09:51:30;;;;;;;2.95;1.80;;;-0.70;99.90;;;;;;5073949;28;20099;-70
2022/02/07 09:53:56;;;;;;;3.28;1.40;;;-0.80;99.90;;;;;;5074021;28;20586;-71
2022/02/07 09:56:23;;;;;;;2.55;1.80;;;-0.20;99.90;;;;;;5073781;28;20537;-72
2022/02/07 09:58:51;;;;;;;2.03;1.40;;;0.80;99.90;;;;;;5074551;28;20051;-73
2022/02/07 10:01:25;;;;;;;1.73;1.50;;;0.50;99.90;;;;;;5074062;28;20032;-72
2022/02/07 10:06:34;;;;;;;1.60;1.50;;;1.80;99.90;;;;;;5093730;28;20043;-72
2022/02/07 10:14:45;;;;;;;1.75;1.55;;;0.60;99.90;;;;;;5091503;28;20020;-71
2022/02/07 10:17:39;;;;;;;1.85;1.30;;;0.40;99.90;;;;;;5087249;28;20027;-71
2022/02/07 10:43:07;;;;;;;1.40;1.30;;;-0.10;99.90;;;;;;5093701;28;20028;-69
2022/02/07 10:45:35;;;;;;;2.03;1.55;;;-0.10;99.90;;;;;;5092882;28;20016;-69
2022/02/07 10:48:05;;;;;;;1.52;1.42;;;0.00;99.90;;;;;;5093186;28;20028;-69
2022/02/07 10:50:31;;;;;;;1.63;1.40;;;-0.10;99.90;;;;;;5093236;28;20084;-69
2022/02/07 10:53:00;;;;;;;1.40;1.30;;;-0.10;99.90;;;;;;5093522;28;20075;-69
2022/02/07 10:55:32;;;;;;;1.75;1.30;;;-0.10;99.90;;;;;;5092977;28;20490;-69
2022/02/07 10:58:00;;;;;;;2.63;1.35;;;-0.10;99.90;;;;;;5091929;28;20035;-69
2022/02/07 11:00:38;;;;;;;2.53;1.48;;;0.00;99.90;;;;;;5091651;28;20451;-69
2022/02/07 11:03:19;;;;;;;2.00;1.40;;;0.00;99.90;;;;;;5093064;28;20020;-69
2022/02/07 11:05:51;;;;;;;2.67;1.60;;;0.00;99.90;;;;;;5092703;28;20031;-69
2022/02/07 11:16:26;;;;;;;2.63;1.58;;;0.10;99.90;;;;;;5092745;28;20028;-73
2022/02/07 11:24:26;;;;;;;3.15;1.60;;;0.20;99.90;;;;;;5089122;28;20528;-69
2022/02/07 11:26:52;;;;;;;2.40;1.38;;;0.10;99.90;;;;;;5091864;28;20031;-71
2022/02/07 11:29:38;;;;;;;2.25;1.67;;;0.10;99.90;;;;;;5091944;28;20032;-70
2022/02/07 11:32:05;;;;;;;2.92;1.67;;;0.10;99.90;;;;;;5089515;28;20024;-70
2022/02/07 11:34:43;;;;;;;1.70;1.60;;;0.10;99.90;;;;;;5091588;28;20076;-70
2022/02/07 11:37:18;;;;;;;2.63;1.80;;;0.10;99.90;;;;;;5090836;28;20070;-69
2022/02/07 11:39:48;;;;;;;2.63;1.50;;;0.20;99.90;;;;;;5089003;28;20161;-69
2022/02/07 11:42:14;;;;;;;;;;;0.20;99.90;;;;;;5092467;28;20111;-68
2022/02/07 11:44:45;;;;;;;2.55;1.65;;;0.20;99.90;;;;;;5091703;28;19987;-68
2022/02/07 11:47:29;;;;;;;4.05;1.80;;;0.20;99.90;;;;;;5091831;28;20027;-68
2022/02/07 11:50:02;;;;;;;1.90;1.50;;;0.20;99.90;;;;;;5091565;28;20039;-70
2022/02/07 11:52:35;;;;;;;2.83;1.67;;;0.20;99.90;;;;;;5092384;28;20028;-69
2022/02/07 11:55:14;;;;;;;2.92;1.75;;;0.30;99.90;;;;;;5092032;28;20027;-70
2022/02/07 11:57:50;;;;;;;2.67;1.88;;;0.70;99.90;;;;;;5091925;28;20111;-71
2022/02/07 12:00:23;;;;;;;1.63;1.52;;;0.70;99.90;;;;;;5092141;28;20457;-72
2022/02/07 12:02:50;;;;;;;2.17;1.75;;;0.70;99.90;;;;;;5091927;28;20081;-71
2022/02/07 12:05:21;;;;;;;2.60;1.70;;;0.70;99.90;;;;;;5092180;28;20429;-71
2022/02/07 12:08:05;;;;;;;2.40;1.63;;;0.60;99.90;;;;;;5091948;28;20093;-71
2022/02/07 12:10:38;;;;;;;1.50;1.30;;;0.60;99.90;;;;;;5091895;28;20089;-69
2022/02/07 12:13:30;;;;;;;1.98;1.23;;;1.10;99.90;;;;;;5092018;28;20024;-73
2022/02/07 12:15:58;;;;;;;2.53;1.35;;;1.10;99.90;;;;;;5091980;28;20026;-70
2022/02/07 12:18:25;;;;;;;1.50;1.25;;;1.90;99.90;;;;;;5090248;28;20024;-71
2022/02/07 12:21:11;;;;;;;1.33;1.23;;;2.90;99.90;;;;;;5091493;28;20069;-71
2022/02/07 12:23:37;;;;;;;2.85;1.30;;;2.20;99.90;;;;;;5091956;28;20032;-71
2022/02/07 12:26:11;;;;;;;10.27;2.30;;;1.40;99.90;;;;;;5091700;28;20016;-71
2022/02/07 12:28:44;;;;;;;3.40;2.00;;;1.00;99.90;;;;;;5091660;28;20025;-71
2022/02/07 12:31:20;;;;;;;2.00;1.45;;;0.70;99.90;;;;;;5091933;28;20497;-71
2022/02/07 12:33:58;;;;;;;1.50;1.40;;;0.50;99.90;;;;;;5091579;28;20116;-72
2022/02/07 12:36:27;;;;;;;1.60;1.50;;;0.70;99.90;;;;;;5091603;28;20085;-70
2022/02/07 12:38:54;;;;;;;2.95;1.52;;;0.80;99.90;;;;;;5091508;28;20094;-70
2022/02/07 12:41:23;;;;;;;1.42;1.30;;;0.90;99.90;;;;;;5091835;28;20024;-70
2022/02/07 12:43:51;;;;;;;1.40;1.30;;;1.00;99.90;;;;;;5091598;28;20034;-70
2022/02/07 12:46:23;;;;;;;1.80;1.33;;;1.00;99.90;;;;;;5089983;28;20379;-70
2022/02/07 12:48:54;;;;;;;1.63;1.30;;;0.80;99.90;;;;;;5095431;28;20028;-70
2022/02/07 12:51:43;;;;;;;2.92;1.30;;;0.70;99.90;;;;;;5093888;28;20020;-70
2022/02/07 12:54:20;;;;;;;1.27;1.17;;;0.70;99.90;;;;;;5095290;28;20016;-70
2022/02/07 12:56:46;;;;;;;2.47;1.42;;;1.10;99.90;;;;;;5095412;28;20108;-70
2022/02/07 12:59:13;;;;;;;1.70;1.33;;;1.00;99.90;;;;;;5095013;28;20370;-70
2022/02/07 13:01:42;;;;;;;1.40;1.30;;;1.00;99.90;;;;;;5095000;28;20024;-71
2022/02/07 13:04:18;;;;;;;1.30;1.20;;;0.80;99.90;;;;;;5095089;28;20055;-71
2022/02/07 13:06:49;;;;;;;2.17;1.30;;;0.80;99.90;;;;;;5094733;28;20479;-71
2022/02/07 13:09:19;;;;;;;1.88;1.17;;;0.70;99.90;;;;;;5094770;28;20032;-71
2022/02/07 13:12:00;;;;;;;1.85;1.30;;;0.70;99.90;;;;;;5094865;28;20055;-70
2022/02/07 13:14:27;;;;;;;1.58;1.27;;;0.60;99.90;;;;;;5094899;28;20044;-73
2022/02/07 13:16:53;;;;;;;2.92;1.40;;;0.60;99.90;;;;;;5094694;28;20488;-71
2022/02/07 13:19:21;;;;;;;1.23;1.13;;;0.50;99.90;;;;;;5095677;28;20561;-71
2022/02/07 13:21:53;;;;;;;1.08;1.08;;;0.40;99.90;;;;;;5094764;28;20028;-70
2022/02/07 13:24:21;;;;;;;1.45;1.30;;;0.40;99.90;;;;;;5094952;28;20366;-70
2022/02/07 13:26:52;;;;;;;1.40;1.30;;;0.40;99.90;;;;;;5094694;28;20030;-68
2022/02/07 13:29:19;;;;;;;1.35;1.13;;;0.40;99.90;;;;;;5094590;28;20499;-67
2022/02/07 13:31:56;;;;;;;2.05;1.17;;;2.60;99.90;;;;;;5094892;28;20530;-69
2022/02/07 13:34:27;;;;;;;1.30;1.25;;;6.90;99.90;;;;;;5094452;28;20024;-67
2022/02/07 13:37:03;;;;;;;1.05;0.90;;;9.50;99.90;;;;;;5094211;28;20048;-67
2022/02/07 13:39:30;;;;;;;2.03;1.02;;;11.70;99.90;;;;;;5094261;28;20020;-70
2022/02/07 13:42:07;;;;;;;1.25;1.10;;;13.00;92.00;;;;;;5094419;28;20032;-70
2022/02/07 13:44:45;;;;;;;2.25;1.13;;;11.70;80.40;;;;;;5094250;28;20103;-70
2022/02/07 13:47:12;;;;;;;7.38;3.42;;;10.10;89.60;;;;;;5094415;28;20028;-70
2022/02/07 13:49:56;;;;;;;2.58;1.25;;;8.10;82.20;;;;;;5093925;28;20086;-69
2022/02/07 13:52:22;;;;;;;1.45;1.00;;;6.00;88.00;;;;;;5094367;28;20479;-69
2022/02/07 13:54:48;;;;;;;3.10;1.33;;;4.80;94.20;;;;;;5093857;28;20020;-69
2022/02/07 13:57:14;;;;;;;1.33;0.95;;;4.20;99.90;;;;;;5093945;28;20024;-70
2022/02/07 13:59:40;;;;;;;0.80;0.80;;;4.30;99.90;;;;;;5093537;28;20028;-71
2022/02/07 14:02:26;;;;;;;2.70;0.90;;;4.10;99.90;;;;;;5093889;28;20442;-72
2022/02/07 14:04:53;;;;;;;1.58;1.17;;;3.40;99.90;;;;;;5093410;28;20024;-72
2022/02/07 14:07:20;;;;;;;1.15;1.05;;;2.90;99.90;;;;;;5093896;28;20032;-71
2022/02/07 14:09:45;;;;;;;1.23;1.10;;;2.60;99.90;;;;;;5092380;28;20369;-71
2022/02/07 14:12:13;;;;;;;1.67;1.23;;;2.20;99.90;;;;;;5094264;28;20026;-72
2022/02/07 14:14:40;;;;;;;1.67;1.33;;;1.90;99.90;;;;;;5093876;28;20035;-73
2022/02/07 14:17:06;;;;;;;2.17;1.48;;;1.70;99.90;;;;;;5093586;28;20459;-72
2022/02/07 14:19:39;;;;;;;2.13;1.17;;;1.60;99.90;;;;;;5093805;28;20033;-70
2022/02/07 14:22:09;;;;;;;1.52;1.20;;;1.50;99.90;;;;;;5093854;28;20103;-70
2022/02/07 14:24:36;;;;;;;2.25;1.55;;;1.30;99.90;;;;;;5092843;28;20032;-70
2022/02/07 14:27:02;;;;;;;2.47;1.30;;;1.20;99.90;;;;;;5089289;28;20031;-70
2022/02/07 14:29:28;;;;;;;3.20;1.27;;;1.10;99.90;;;;;;5092833;28;20051;-71
2022/02/07 14:31:54;;;;;;;2.63;1.33;;;1.00;99.90;;;;;;5090840;28;20467;-70
2022/02/07 14:34:20;;;;;;;1.77;1.20;;;0.80;99.90;;;;;;5091927;28;20024;-71
2022/02/07 14:36:46;;;;;;;1.17;1.08;;;0.70;99.90;;;;;;5089728;28;20024;-71
2022/02/07 14:39:12;;;;;;;1.30;1.20;;;0.70;99.90;;;;;;5092960;28;20042;-71
2022/02/07 14:41:37;;;;;;;1.40;1.30;;;0.50;99.90;;;;;;5092414;28;20020;-71
2022/02/07 14:44:04;;;;;;;2.30;1.58;;;0.50;99.90;;;;;;5092534;28;20020;-71
2022/02/07 14:46:43;;;;;;;1.98;1.27;;;0.50;99.90;;;;;;5092378;28;20500;-71
2022/02/07 14:49:09;;;;;;;1.30;1.20;;;0.50;99.90;;;;;;5092698;28;20034;-70
2022/02/07 14:51:35;;;;;;;5.63;1.90;;;0.40;99.90;;;;;;5092349;28;20012;-70
2022/02/07 14:54:01;;;;;;;1.50;1.40;;;0.40;99.90;;;;;;5092422;28;20110;-70
2022/02/07 14:56:27;;;;;;;1.38;1.27;;;0.40;99.90;;;;;;5092371;28;20027;-68
2022/02/07 14:58:53;;;;;;;2.00;1.40;;;0.40;99.90;;;;;;5084922;28;20017;-66
2022/02/07 15:01:19;;;;;;;2.15;1.40;;;0.70;99.90;;;;;;5091494;28;20020;-70
2022/02/07 15:03:49;;;;;;;3.10;2.80;;;0.70;99.90;;;;;;5092119;28;20031;-70
2022/02/07 15:06:15;;;;;;;46.15;16.38;;;0.70;99.90;;;;;;5092633;28;20423;-70
2022/02/07 15:08:41;;;;;;;16.20;7.65;;;0.60;99.90;;;;;;5092301;28;20024;-71
2022/02/07 15:11:07;;;;;;;24.70;10.90;;;0.50;99.90;;;;;;5092181;28;20493;-71
2022/02/07 15:13:34;;;;;;;11.50;6.50;;;0.40;99.90;;;;;;5092124;28;20020;-70
2022/02/07 15:16:01;;;;;;;5.28;3.67;;;0.40;99.90;;;;;;5091919;28;20707;-70
2022/02/07 15:18:29;;;;;;;5.40;3.80;;;0.40;99.90;;;;;;5089302;28;20088;-70
2022/02/07 15:20:57;;;;;;;4.47;4.07;;;0.40;99.90;;;;;;5091857;28;20019;-69
2022/02/07 15:23:23;;;;;;;4.57;3.08;;;0.40;99.90;;;;;;5092890;28;20168;-68
2022/02/07 15:25:49;;;;;;;2.15;1.60;;;0.40;99.90;;;;;;5092426;28;20020;-71
2022/02/07 15:28:16;;;;;;;1.90;1.27;;;0.30;99.90;;;;;;5092407;28;20103;-69
2022/02/07 15:30:45;;;;;;;1.80;1.30;;;0.30;99.90;;;;;;5091961;28;20032;-70
2022/02/07 15:33:21;;;;;;;5.10;2.45;;;0.30;99.90;;;;;;5083659;28;20519;-69
2022/02/07 15:35:54;;;;;;;3.45;2.75;;;0.40;99.90;;;;;;5084121;28;20098;-69
2022/02/07 15:38:25;;;;;;;3.47;2.85;;;0.40;99.90;;;;;;5089381;28;20071;-67
2022/02/07 15:40:53;;;;;;;2.05;1.83;;;0.50;99.90;;;;;;5091695;28;20044;-67
2022/02/07 15:43:19;;;;;;;3.75;2.20;;;0.50;99.90;;;;;;5092251;28;20081;-67
2022/02/07 15:45:46;;;;;;;3.22;2.92;;;0.40;99.90;;;;;;5091607;28;20024;-66
2022/02/07 15:48:12;;;;;;;2.42;1.70;;;0.40;99.90;;;;;;5092290;28;20441;-64
2022/02/07 15:50:38;;;;;;;1.60;1.30;;;0.50;99.90;;;;;;5091416;28;20552;-66
2022/02/07 15:53:05;;;;;;;3.53;1.50;;;1.00;99.90;;;;;;5092010;28;20020;-66
2022/02/07 15:55:32;;;;;;;2.20;1.50;;;2.30;99.90;;;;;;5091829;28;20035;-67
2022/02/07 15:57:58;;;;;;;2.30;1.50;;;3.90;99.90;;;;;;5092181;28;20024;-67
2022/02/07 16:00:24;;;;;;;1.48;1.23;;;3.40;99.90;;;;;;5092132;28;20031;-69
2022/02/07 16:02:51;;;;;;;1.45;1.08;;;2.90;99.90;;;;;;5092019;28;20040;-67
2022/02/07 16:05:18;;;;;;;1.55;1.40;;;2.30;99.90;;;;;;5091984;28;20479;-69
2022/02/07 16:07:44;;;;;;;1.10;1.00;;;1.60;99.90;;;;;;5091884;28;20027;-69
2022/02/07 16:10:10;;;;;;;1.55;1.45;;;1.20;99.90;;;;;;5092155;28;20039;-69
2022/02/07 16:12:36;;;;;;;1.35;1.23;;;0.90;99.90;;;;;;5092037;28;20016;-72
2022/02/07 16:15:03;;;;;;;1.95;1.40;;;3.10;99.90;;;;;;5091721;28;20024;-72
2022/02/07 16:17:28;;;;;;;1.60;0.98;;;7.90;99.90;;;;;;5091799;28;20020;-72